sensor_id;sensor_type;location;lat;lon;timestamp;P1;durP1;ratioP1;P2;durP2;ratioP2
8478;SDS011;4276;49.354;6.804;2023-02-15T00:01:38;20.60;;;17.17;;
8478;SDS011;4276;49.354;6.804;2023-02-15T00:04:04;21.13;;;18.05;;
8478;SDS011;4276;49.354;6.804;2023-02-15T00:06:32;20.83;;;17.77;;
8478;SDS011;4276;49.354;6.804;2023-02-15T00:08:59;20.27;;;17.33;;
8478;SDS011;4276;49.354;6.804;2023-02-15T00:11:26;22.08;;;18.20;;
8478;SDS011;4276;49.354;6.804;2023-02-15T00:14:13;19.85;;;17.33;;
8478;SDS011;4276;49.354;6.804;2023-02-15T00:16:40;20.38;;;16.98;;
8478;SDS011;4276;49.354;6.804;2023-02-15T00:19:07;20.55;;;17.00;;
8478;SDS011;4276;49.354;6.804;2023-02-15T00:21:35;20.48;;;16.63;;
8478;SDS011;4276;49.354;6.804;2023-02-15T00:24:02;20.00;;;17.20;;
8478;SDS011;4276;49.354;6.804;2023-02-15T00:26:31;21.65;;;16.95;;
8478;SDS011;4276;49.354;6.804;2023-02-15T00:28:58;20.52;;;16.83;;
8478;SDS011;4276;49.354;6.804;2023-02-15T00:31:25;22.05;;;17.42;;
8478;SDS011;4276;49.354;6.804;2023-02-15T00:33:51;20.63;;;16.75;;
8478;SDS011;4276;49.354;6.804;2023-02-15T00:36:18;22.02;;;17.40;;
8478;SDS011;4276;49.354;6.804;2023-02-15T00:38:44;23.25;;;18.20;;
8478;SDS011;4276;49.354;6.804;2023-02-15T00:41:11;28.27;;;20.80;;
8478;SDS011;4276;49.354;6.804;2023-02-15T00:43:37;26.40;;;19.80;;
8478;SDS011;4276;49.354;6.804;2023-02-15T00:46:04;24.80;;;19.55;;
8478;SDS011;4276;49.354;6.804;2023-02-15T00:48:31;26.15;;;19.13;;
8478;SDS011;4276;49.354;6.804;2023-02-15T00:50:58;22.58;;;17.95;;
8478;SDS011;4276;49.354;6.804;2023-02-15T00:53:25;24.88;;;19.10;;
8478;SDS011;4276;49.354;6.804;2023-02-15T00:55:52;25.38;;;18.48;;
8478;SDS011;4276;49.354;6.804;2023-02-15T00:58:19;22.40;;;18.00;;
8478;SDS011;4276;49.354;6.804;2023-02-15T01:00:46;23.48;;;18.85;;
8478;SDS011;4276;49.354;6.804;2023-02-15T01:03:14;24.35;;;18.48;;
8478;SDS011;4276;49.354;6.804;2023-02-15T01:05:41;23.45;;;19.58;;
8478;SDS011;4276;49.354;6.804;2023-02-15T01:08:07;24.08;;;18.95;;
8478;SDS011;4276;49.354;6.804;2023-02-15T01:10:34;21.83;;;17.75;;
8478;SDS011;4276;49.354;6.804;2023-02-15T01:13:01;23.98;;;18.25;;
8478;SDS011;4276;49.354;6.804;2023-02-15T01:15:28;24.35;;;19.17;;
8478;SDS011;4276;49.354;6.804;2023-02-15T01:17:55;21.98;;;18.33;;
8478;SDS011;4276;49.354;6.804;2023-02-15T01:20:22;22.60;;;18.27;;
8478;SDS011;4276;49.354;6.804;2023-02-15T01:22:50;23.67;;;19.02;;
8478;SDS011;4276;49.354;6.804;2023-02-15T01:25:17;23.55;;;18.75;;
8478;SDS011;4276;49.354;6.804;2023-02-15T01:27:44;28.50;;;19.35;;
8478;SDS011;4276;49.354;6.804;2023-02-15T01:30:11;25.95;;;19.00;;
8478;SDS011;4276;49.354;6.804;2023-02-15T01:32:38;26.83;;;18.88;;
8478;SDS011;4276;49.354;6.804;2023-02-15T01:35:05;26.60;;;20.05;;
8478;SDS011;4276;49.354;6.804;2023-02-15T01:37:33;23.92;;;19.05;;
8478;SDS011;4276;49.354;6.804;2023-02-15T01:40:00;24.58;;;19.27;;
8478;SDS011;4276;49.354;6.804;2023-02-15T01:42:28;24.60;;;19.42;;
8478;SDS011;4276;49.354;6.804;2023-02-15T01:47:24;27.15;;;20.20;;
8478;SDS011;4276;49.354;6.804;2023-02-15T01:50:08;27.25;;;20.90;;
8478;SDS011;4276;49.354;6.804;2023-02-15T01:52:39;24.75;;;19.13;;
8478;SDS011;4276;49.354;6.804;2023-02-15T01:55:08;24.27;;;19.75;;
8478;SDS011;4276;49.354;6.804;2023-02-15T01:57:35;26.23;;;19.98;;
8478;SDS011;4276;49.354;6.804;2023-02-15T02:00:02;25.42;;;19.63;;
8478;SDS011;4276;49.354;6.804;2023-02-15T02:02:30;24.40;;;18.75;;
8478;SDS011;4276;49.354;6.804;2023-02-15T02:04:58;24.67;;;20.08;;
8478;SDS011;4276;49.354;6.804;2023-02-15T02:07:29;24.23;;;19.08;;
8478;SDS011;4276;49.354;6.804;2023-02-15T02:09:55;24.67;;;19.67;;
8478;SDS011;4276;49.354;6.804;2023-02-15T02:12:22;23.48;;;18.48;;
8478;SDS011;4276;49.354;6.804;2023-02-15T02:14:49;21.75;;;17.50;;
8478;SDS011;4276;49.354;6.804;2023-02-15T02:17:19;22.98;;;18.75;;
8478;SDS011;4276;49.354;6.804;2023-02-15T02:22:42;24.05;;;18.60;;
8478;SDS011;4276;49.354;6.804;2023-02-15T02:34:21;23.55;;;18.08;;
8478;SDS011;4276;49.354;6.804;2023-02-15T02:36:52;23.92;;;18.58;;
8478;SDS011;4276;49.354;6.804;2023-02-15T02:42:10;24.20;;;19.00;;
8478;SDS011;4276;49.354;6.804;2023-02-15T02:44:52;24.52;;;17.98;;
8478;SDS011;4276;49.354;6.804;2023-02-15T02:47:43;23.08;;;17.85;;
8478;SDS011;4276;49.354;6.804;2023-02-15T02:50:16;21.27;;;17.05;;
8478;SDS011;4276;49.354;6.804;2023-02-15T02:52:54;23.23;;;17.73;;
8478;SDS011;4276;49.354;6.804;2023-02-15T02:55:23;23.10;;;16.88;;
8478;SDS011;4276;49.354;6.804;2023-02-15T03:00:32;25.92;;;17.10;;
8478;SDS011;4276;49.354;6.804;2023-02-15T03:03:06;25.25;;;18.52;;
8478;SDS011;4276;49.354;6.804;2023-02-15T03:05:37;22.20;;;17.33;;
8478;SDS011;4276;49.354;6.804;2023-02-15T03:08:06;22.92;;;17.17;;
8478;SDS011;4276;49.354;6.804;2023-02-15T03:10:36;29.73;;;17.38;;
8478;SDS011;4276;49.354;6.804;2023-02-15T03:13:03;25.77;;;18.40;;
8478;SDS011;4276;49.354;6.804;2023-02-15T03:15:30;25.58;;;17.58;;
8478;SDS011;4276;49.354;6.804;2023-02-15T03:18:20;22.13;;;16.52;;
8478;SDS011;4276;49.354;6.804;2023-02-15T03:20:49;22.70;;;17.35;;
8478;SDS011;4276;49.354;6.804;2023-02-15T03:23:18;24.00;;;16.75;;
8478;SDS011;4276;49.354;6.804;2023-02-15T03:25:58;22.90;;;17.38;;
8478;SDS011;4276;49.354;6.804;2023-02-15T03:28:33;21.38;;;16.38;;
8478;SDS011;4276;49.354;6.804;2023-02-15T03:31:02;26.33;;;17.20;;
8478;SDS011;4276;49.354;6.804;2023-02-15T03:33:31;23.65;;;16.42;;
8478;SDS011;4276;49.354;6.804;2023-02-15T03:36:02;24.13;;;16.95;;
8478;SDS011;4276;49.354;6.804;2023-02-15T03:38:36;24.13;;;17.80;;
8478;SDS011;4276;49.354;6.804;2023-02-15T03:41:15;22.02;;;16.83;;
8478;SDS011;4276;49.354;6.804;2023-02-15T03:49:17;28.08;;;18.73;;
8478;SDS011;4276;49.354;6.804;2023-02-15T03:51:48;23.75;;;18.20;;
8478;SDS011;4276;49.354;6.804;2023-02-15T03:54:27;26.58;;;18.88;;
8478;SDS011;4276;49.354;6.804;2023-02-15T03:57:14;26.38;;;18.70;;
8478;SDS011;4276;49.354;6.804;2023-02-15T04:00:17;25.02;;;18.17;;
8478;SDS011;4276;49.354;6.804;2023-02-15T04:05:35;23.10;;;17.90;;
8478;SDS011;4276;49.354;6.804;2023-02-15T04:08:02;23.42;;;18.33;;
8478;SDS011;4276;49.354;6.804;2023-02-15T04:10:28;23.83;;;17.83;;
8478;SDS011;4276;49.354;6.804;2023-02-15T04:13:14;22.90;;;17.35;;
8478;SDS011;4276;49.354;6.804;2023-02-15T04:15:40;25.00;;;18.13;;
8478;SDS011;4276;49.354;6.804;2023-02-15T04:18:26;23.65;;;17.77;;
8478;SDS011;4276;49.354;6.804;2023-02-15T04:21:11;23.80;;;18.45;;
8478;SDS011;4276;49.354;6.804;2023-02-15T04:23:56;24.23;;;19.10;;
8478;SDS011;4276;49.354;6.804;2023-02-15T04:26:42;23.77;;;17.65;;
8478;SDS011;4276;49.354;6.804;2023-02-15T04:29:08;23.65;;;18.52;;
8478;SDS011;4276;49.354;6.804;2023-02-15T04:31:35;23.95;;;18.80;;
8478;SDS011;4276;49.354;6.804;2023-02-15T04:34:01;24.55;;;18.65;;
8478;SDS011;4276;49.354;6.804;2023-02-15T04:36:28;21.42;;;17.00;;
8478;SDS011;4276;49.354;6.804;2023-02-15T04:38:54;24.65;;;18.50;;
8478;SDS011;4276;49.354;6.804;2023-02-15T04:41:21;26.75;;;17.55;;
8478;SDS011;4276;49.354;6.804;2023-02-15T04:43:47;24.27;;;18.33;;
8478;SDS011;4276;49.354;6.804;2023-02-15T04:46:13;25.20;;;18.65;;
8478;SDS011;4276;49.354;6.804;2023-02-15T04:48:40;23.33;;;17.75;;
8478;SDS011;4276;49.354;6.804;2023-02-15T04:51:06;22.15;;;17.27;;
8478;SDS011;4276;49.354;6.804;2023-02-15T04:53:33;22.58;;;17.95;;
8478;SDS011;4276;49.354;6.804;2023-02-15T04:56:00;22.83;;;18.23;;
8478;SDS011;4276;49.354;6.804;2023-02-15T04:58:27;22.27;;;18.30;;
8478;SDS011;4276;49.354;6.804;2023-02-15T05:00:57;20.73;;;16.88;;
8478;SDS011;4276;49.354;6.804;2023-02-15T05:03:23;23.02;;;17.83;;
8478;SDS011;4276;49.354;6.804;2023-02-15T05:05:50;21.08;;;16.77;;
8478;SDS011;4276;49.354;6.804;2023-02-15T05:08:17;19.92;;;16.45;;
8478;SDS011;4276;49.354;6.804;2023-02-15T05:10:43;20.75;;;16.02;;
8478;SDS011;4276;49.354;6.804;2023-02-15T05:13:10;22.33;;;17.48;;
8478;SDS011;4276;49.354;6.804;2023-02-15T05:15:36;21.27;;;17.00;;
8478;SDS011;4276;49.354;6.804;2023-02-15T05:18:03;19.48;;;15.82;;
8478;SDS011;4276;49.354;6.804;2023-02-15T05:20:29;21.40;;;16.85;;
8478;SDS011;4276;49.354;6.804;2023-02-15T05:22:56;24.02;;;17.65;;
8478;SDS011;4276;49.354;6.804;2023-02-15T05:25:22;20.30;;;16.17;;
8478;SDS011;4276;49.354;6.804;2023-02-15T05:28:08;20.60;;;16.65;;
8478;SDS011;4276;49.354;6.804;2023-02-15T05:30:48;21.20;;;16.40;;
8478;SDS011;4276;49.354;6.804;2023-02-15T05:33:24;22.58;;;17.80;;
8478;SDS011;4276;49.354;6.804;2023-02-15T05:35:51;20.23;;;16.60;;
8478;SDS011;4276;49.354;6.804;2023-02-15T05:38:17;17.83;;;14.95;;
8478;SDS011;4276;49.354;6.804;2023-02-15T05:40:44;21.05;;;17.30;;
8478;SDS011;4276;49.354;6.804;2023-02-15T05:43:10;20.05;;;15.30;;
8478;SDS011;4276;49.354;6.804;2023-02-15T05:45:37;20.77;;;14.80;;
8478;SDS011;4276;49.354;6.804;2023-02-15T05:48:03;20.30;;;16.55;;
8478;SDS011;4276;49.354;6.804;2023-02-15T05:50:30;22.70;;;17.13;;
8478;SDS011;4276;49.354;6.804;2023-02-15T05:52:56;20.48;;;16.30;;
8478;SDS011;4276;49.354;6.804;2023-02-15T05:55:23;21.65;;;16.60;;
8478;SDS011;4276;49.354;6.804;2023-02-15T05:57:49;21.63;;;17.05;;
8478;SDS011;4276;49.354;6.804;2023-02-15T06:00:17;23.70;;;16.90;;
8478;SDS011;4276;49.354;6.804;2023-02-15T06:02:44;21.10;;;16.05;;
8478;SDS011;4276;49.354;6.804;2023-02-15T06:05:10;20.30;;;15.98;;
8478;SDS011;4276;49.354;6.804;2023-02-15T06:07:37;20.42;;;16.40;;
8478;SDS011;4276;49.354;6.804;2023-02-15T06:10:03;22.60;;;17.50;;
8478;SDS011;4276;49.354;6.804;2023-02-15T06:12:30;19.35;;;15.38;;
8478;SDS011;4276;49.354;6.804;2023-02-15T06:14:57;19.08;;;15.00;;
8478;SDS011;4276;49.354;6.804;2023-02-15T06:17:23;19.05;;;14.68;;
8478;SDS011;4276;49.354;6.804;2023-02-15T06:19:50;18.75;;;14.63;;
8478;SDS011;4276;49.354;6.804;2023-02-15T06:22:16;19.65;;;15.48;;
8478;SDS011;4276;49.354;6.804;2023-02-15T06:24:43;20.83;;;15.45;;
8478;SDS011;4276;49.354;6.804;2023-02-15T06:27:09;22.15;;;17.42;;
8478;SDS011;4276;49.354;6.804;2023-02-15T06:29:36;20.23;;;16.45;;
8478;SDS011;4276;49.354;6.804;2023-02-15T06:32:03;20.75;;;16.77;;
8478;SDS011;4276;49.354;6.804;2023-02-15T06:34:29;20.17;;;16.00;;
8478;SDS011;4276;49.354;6.804;2023-02-15T06:36:56;20.50;;;15.63;;
8478;SDS011;4276;49.354;6.804;2023-02-15T06:39:22;20.40;;;15.15;;
8478;SDS011;4276;49.354;6.804;2023-02-15T06:41:49;21.00;;;15.13;;
8478;SDS011;4276;49.354;6.804;2023-02-15T06:44:15;20.90;;;15.88;;
8478;SDS011;4276;49.354;6.804;2023-02-15T06:46:42;20.35;;;15.25;;
8478;SDS011;4276;49.354;6.804;2023-02-15T06:49:08;19.40;;;14.85;;
8478;SDS011;4276;49.354;6.804;2023-02-15T06:51:35;20.63;;;15.55;;
8478;SDS011;4276;49.354;6.804;2023-02-15T06:54:01;20.48;;;15.23;;
8478;SDS011;4276;49.354;6.804;2023-02-15T06:56:28;18.55;;;14.57;;
8478;SDS011;4276;49.354;6.804;2023-02-15T06:58:55;18.95;;;15.32;;
8478;SDS011;4276;49.354;6.804;2023-02-15T07:01:22;17.77;;;14.45;;
8478;SDS011;4276;49.354;6.804;2023-02-15T07:03:48;18.48;;;14.27;;
8478;SDS011;4276;49.354;6.804;2023-02-15T07:06:15;19.73;;;14.30;;
8478;SDS011;4276;49.354;6.804;2023-02-15T07:08:41;18.30;;;14.23;;
8478;SDS011;4276;49.354;6.804;2023-02-15T07:11:08;18.10;;;14.70;;
8478;SDS011;4276;49.354;6.804;2023-02-15T07:13:53;18.95;;;14.40;;
8478;SDS011;4276;49.354;6.804;2023-02-15T07:16:19;19.88;;;15.02;;
8478;SDS011;4276;49.354;6.804;2023-02-15T07:18:46;18.02;;;13.80;;
8478;SDS011;4276;49.354;6.804;2023-02-15T07:21:13;17.00;;;14.15;;
8478;SDS011;4276;49.354;6.804;2023-02-15T07:23:39;19.25;;;15.02;;
8478;SDS011;4276;49.354;6.804;2023-02-15T07:26:06;17.58;;;13.43;;
8478;SDS011;4276;49.354;6.804;2023-02-15T07:28:33;17.33;;;14.50;;
8478;SDS011;4276;49.354;6.804;2023-02-15T07:31:01;17.65;;;14.02;;
8478;SDS011;4276;49.354;6.804;2023-02-15T07:33:30;19.05;;;14.20;;
8478;SDS011;4276;49.354;6.804;2023-02-15T07:35:58;19.92;;;15.27;;
8478;SDS011;4276;49.354;6.804;2023-02-15T07:38:32;20.35;;;15.88;;
8478;SDS011;4276;49.354;6.804;2023-02-15T07:40:59;19.55;;;15.07;;
8478;SDS011;4276;49.354;6.804;2023-02-15T07:43:27;18.13;;;14.23;;
8478;SDS011;4276;49.354;6.804;2023-02-15T07:45:59;19.70;;;15.55;;
8478;SDS011;4276;49.354;6.804;2023-02-15T07:48:27;22.52;;;16.85;;
8478;SDS011;4276;49.354;6.804;2023-02-15T07:50:53;19.25;;;15.35;;
8478;SDS011;4276;49.354;6.804;2023-02-15T07:53:20;22.00;;;15.98;;
8478;SDS011;4276;49.354;6.804;2023-02-15T07:55:46;17.63;;;14.30;;
8478;SDS011;4276;49.354;6.804;2023-02-15T07:58:12;19.88;;;15.50;;
8478;SDS011;4276;49.354;6.804;2023-02-15T08:00:39;19.30;;;15.55;;
8478;SDS011;4276;49.354;6.804;2023-02-15T08:03:24;19.83;;;15.80;;
8478;SDS011;4276;49.354;6.804;2023-02-15T08:05:57;18.73;;;15.50;;
8478;SDS011;4276;49.354;6.804;2023-02-15T08:08:25;19.92;;;15.40;;
8478;SDS011;4276;49.354;6.804;2023-02-15T08:13:48;20.98;;;16.55;;
8478;SDS011;4276;49.354;6.804;2023-02-15T08:16:30;20.45;;;15.93;;
8478;SDS011;4276;49.354;6.804;2023-02-15T08:18:57;20.00;;;16.55;;
8478;SDS011;4276;49.354;6.804;2023-02-15T08:21:26;19.05;;;15.50;;
8478;SDS011;4276;49.354;6.804;2023-02-15T08:23:54;19.75;;;15.88;;
8478;SDS011;4276;49.354;6.804;2023-02-15T08:26:22;21.05;;;16.23;;
8478;SDS011;4276;49.354;6.804;2023-02-15T08:28:48;18.40;;;15.45;;
8478;SDS011;4276;49.354;6.804;2023-02-15T08:31:16;18.52;;;15.55;;
8478;SDS011;4276;49.354;6.804;2023-02-15T08:33:43;18.70;;;16.30;;
8478;SDS011;4276;49.354;6.804;2023-02-15T08:36:14;19.80;;;16.27;;
8478;SDS011;4276;49.354;6.804;2023-02-15T08:38:42;17.83;;;15.63;;
8478;SDS011;4276;49.354;6.804;2023-02-15T08:41:12;20.83;;;16.20;;
8478;SDS011;4276;49.354;6.804;2023-02-15T08:43:48;18.77;;;15.68;;
8478;SDS011;4276;49.354;6.804;2023-02-15T08:46:17;20.60;;;16.15;;
8478;SDS011;4276;49.354;6.804;2023-02-15T08:48:44;17.70;;;15.27;;
8478;SDS011;4276;49.354;6.804;2023-02-15T08:51:12;18.23;;;14.95;;
8478;SDS011;4276;49.354;6.804;2023-02-15T08:53:43;20.85;;;16.80;;
8478;SDS011;4276;49.354;6.804;2023-02-15T08:56:11;18.35;;;15.48;;
8478;SDS011;4276;49.354;6.804;2023-02-15T08:58:37;18.85;;;16.75;;
8478;SDS011;4276;49.354;6.804;2023-02-15T09:03:36;18.23;;;15.88;;
8478;SDS011;4276;49.354;6.804;2023-02-15T09:06:03;18.40;;;15.65;;
8478;SDS011;4276;49.354;6.804;2023-02-15T09:08:30;19.10;;;16.33;;
8478;SDS011;4276;49.354;6.804;2023-02-15T09:11:10;18.75;;;15.70;;
8478;SDS011;4276;49.354;6.804;2023-02-15T09:14:02;19.80;;;16.00;;
8478;SDS011;4276;49.354;6.804;2023-02-15T09:16:31;17.42;;;15.35;;
8478;SDS011;4276;49.354;6.804;2023-02-15T09:18:59;15.68;;;14.00;;
8478;SDS011;4276;49.354;6.804;2023-02-15T09:21:33;19.00;;;15.77;;
8478;SDS011;4276;49.354;6.804;2023-02-15T09:24:03;20.25;;;16.40;;
8478;SDS011;4276;49.354;6.804;2023-02-15T09:26:35;20.30;;;16.92;;
8478;SDS011;4276;49.354;6.804;2023-02-15T09:29:03;17.63;;;15.60;;
8478;SDS011;4276;49.354;6.804;2023-02-15T09:31:30;19.58;;;17.15;;
8478;SDS011;4276;49.354;6.804;2023-02-15T09:33:59;18.55;;;16.65;;
8478;SDS011;4276;49.354;6.804;2023-02-15T09:38:55;18.75;;;16.73;;
8478;SDS011;4276;49.354;6.804;2023-02-15T09:44:47;21.80;;;19.55;;
8478;SDS011;4276;49.354;6.804;2023-02-15T09:52:33;19.80;;;17.45;;
8478;SDS011;4276;49.354;6.804;2023-02-15T09:57:56;19.13;;;16.65;;
8478;SDS011;4276;49.354;6.804;2023-02-15T10:17:57;17.58;;;15.77;;
8478;SDS011;4276;49.354;6.804;2023-02-15T10:28:51;17.17;;;15.30;;
8478;SDS011;4276;49.354;6.804;2023-02-15T10:34:05;18.40;;;16.50;;
8478;SDS011;4276;49.354;6.804;2023-02-15T10:41:54;17.27;;;14.95;;
8478;SDS011;4276;49.354;6.804;2023-02-15T10:44:37;16.80;;;15.02;;
8478;SDS011;4276;49.354;6.804;2023-02-15T10:47:19;17.05;;;15.32;;
8478;SDS011;4276;49.354;6.804;2023-02-15T11:03:04;16.23;;;14.63;;
8478;SDS011;4276;49.354;6.804;2023-02-15T11:08:32;17.13;;;15.32;;
8478;SDS011;4276;49.354;6.804;2023-02-15T11:11:06;17.17;;;15.48;;
8478;SDS011;4276;49.354;6.804;2023-02-15T11:13:37;16.13;;;14.40;;
8478;SDS011;4276;49.354;6.804;2023-02-15T11:16:08;16.85;;;15.15;;
8478;SDS011;4276;49.354;6.804;2023-02-15T11:18:51;17.63;;;15.73;;
8478;SDS011;4276;49.354;6.804;2023-02-15T11:24:09;18.05;;;15.55;;
8478;SDS011;4276;49.354;6.804;2023-02-15T11:26:41;17.05;;;15.25;;
8478;SDS011;4276;49.354;6.804;2023-02-15T11:32:40;17.80;;;15.90;;
8478;SDS011;4276;49.354;6.804;2023-02-15T11:42:53;16.52;;;14.93;;
8478;SDS011;4276;49.354;6.804;2023-02-15T11:45:25;16.80;;;15.15;;
8478;SDS011;4276;49.354;6.804;2023-02-15T11:47:54;16.88;;;15.20;;
8478;SDS011;4276;49.354;6.804;2023-02-15T11:50:30;16.88;;;15.07;;
8478;SDS011;4276;49.354;6.804;2023-02-15T11:53:02;17.25;;;15.52;;
8478;SDS011;4276;49.354;6.804;2023-02-15T11:55:30;17.40;;;15.70;;
8478;SDS011;4276;49.354;6.804;2023-02-15T11:57:59;16.92;;;15.20;;
8478;SDS011;4276;49.354;6.804;2023-02-15T12:00:32;17.40;;;15.15;;
8478;SDS011;4276;49.354;6.804;2023-02-15T12:03:03;16.65;;;15.05;;
8478;SDS011;4276;49.354;6.804;2023-02-15T12:05:36;17.23;;;15.52;;
8478;SDS011;4276;49.354;6.804;2023-02-15T12:08:08;17.50;;;15.63;;
8478;SDS011;4276;49.354;6.804;2023-02-15T12:10:40;16.33;;;14.70;;
8478;SDS011;4276;49.354;6.804;2023-02-15T12:13:15;16.17;;;14.57;;
8478;SDS011;4276;49.354;6.804;2023-02-15T12:15:44;16.45;;;14.85;;
8478;SDS011;4276;49.354;6.804;2023-02-15T12:18:20;16.77;;;14.82;;
8478;SDS011;4276;49.354;6.804;2023-02-15T12:20:59;16.98;;;15.38;;
8478;SDS011;4276;49.354;6.804;2023-02-15T12:23:29;17.48;;;15.55;;
8478;SDS011;4276;49.354;6.804;2023-02-15T12:25:56;16.67;;;14.98;;
8478;SDS011;4276;49.354;6.804;2023-02-15T12:30:56;17.83;;;16.02;;
8478;SDS011;4276;49.354;6.804;2023-02-15T12:33:36;17.50;;;15.70;;
8478;SDS011;4276;49.354;6.804;2023-02-15T12:36:12;17.65;;;15.85;;
8478;SDS011;4276;49.354;6.804;2023-02-15T12:38:43;17.83;;;16.05;;
8478;SDS011;4276;49.354;6.804;2023-02-15T12:41:23;16.50;;;14.90;;
8478;SDS011;4276;49.354;6.804;2023-02-15T12:44:05;16.60;;;14.98;;
8478;SDS011;4276;49.354;6.804;2023-02-15T12:46:39;19.00;;;15.65;;
8478;SDS011;4276;49.354;6.804;2023-02-15T12:51:42;17.92;;;15.68;;
8478;SDS011;4276;49.354;6.804;2023-02-15T12:54:17;17.88;;;15.45;;
8478;SDS011;4276;49.354;6.804;2023-02-15T12:56:50;16.95;;;15.00;;
8478;SDS011;4276;49.354;6.804;2023-02-15T12:59:17;17.38;;;15.68;;
8478;SDS011;4276;49.354;6.804;2023-02-15T13:01:48;17.73;;;15.95;;
8478;SDS011;4276;49.354;6.804;2023-02-15T13:04:21;43.38;;;31.05;;
8478;SDS011;4276;49.354;6.804;2023-02-15T13:06:52;27.13;;;21.77;;
8478;SDS011;4276;49.354;6.804;2023-02-15T13:14:59;17.02;;;15.32;;
8478;SDS011;4276;49.354;6.804;2023-02-15T13:17:30;18.65;;;16.67;;
8478;SDS011;4276;49.354;6.804;2023-02-15T13:19:59;17.17;;;15.57;;
8478;SDS011;4276;49.354;6.804;2023-02-15T13:22:34;16.58;;;14.98;;
8478;SDS011;4276;49.354;6.804;2023-02-15T13:25:09;17.48;;;15.68;;
8478;SDS011;4276;49.354;6.804;2023-02-15T13:27:46;19.10;;;16.95;;
8478;SDS011;4276;49.354;6.804;2023-02-15T13:30:19;16.55;;;14.85;;
8478;SDS011;4276;49.354;6.804;2023-02-15T13:33:03;17.63;;;15.82;;
8478;SDS011;4276;49.354;6.804;2023-02-15T13:36:17;17.60;;;15.52;;
8478;SDS011;4276;49.354;6.804;2023-02-15T13:41:30;16.73;;;15.02;;
8478;SDS011;4276;49.354;6.804;2023-02-15T13:47:06;17.45;;;15.70;;
8478;SDS011;4276;49.354;6.804;2023-02-15T13:52:27;17.38;;;15.55;;
8478;SDS011;4276;49.354;6.804;2023-02-15T13:55:08;15.60;;;14.00;;
8478;SDS011;4276;49.354;6.804;2023-02-15T14:06:14;16.20;;;14.60;;
8478;SDS011;4276;49.354;6.804;2023-02-15T14:08:56;16.15;;;14.52;;
8478;SDS011;4276;49.354;6.804;2023-02-15T14:22:58;16.23;;;14.73;;
8478;SDS011;4276;49.354;6.804;2023-02-15T14:25:36;16.52;;;14.90;;
8478;SDS011;4276;49.354;6.804;2023-02-15T14:28:22;16.73;;;15.15;;
8478;SDS011;4276;49.354;6.804;2023-02-15T14:30:55;16.15;;;14.52;;
8478;SDS011;4276;49.354;6.804;2023-02-15T14:33:33;16.50;;;15.00;;
8478;SDS011;4276;49.354;6.804;2023-02-15T14:36:02;16.60;;;14.88;;
8478;SDS011;4276;49.354;6.804;2023-02-15T14:44:05;16.83;;;15.23;;
8478;SDS011;4276;49.354;6.804;2023-02-15T14:49:12;17.48;;;15.68;;
8478;SDS011;4276;49.354;6.804;2023-02-15T14:54:58;17.73;;;15.93;;
8478;SDS011;4276;49.354;6.804;2023-02-15T15:02:17;17.30;;;15.60;;
8478;SDS011;4276;49.354;6.804;2023-02-15T15:04:46;17.27;;;15.38;;
8478;SDS011;4276;49.354;6.804;2023-02-15T15:07:27;17.80;;;16.00;;
8478;SDS011;4276;49.354;6.804;2023-02-15T15:10:33;17.85;;;16.08;;
8478;SDS011;4276;49.354;6.804;2023-02-15T15:16:01;17.33;;;15.23;;
8478;SDS011;4276;49.354;6.804;2023-02-15T15:19:02;17.35;;;15.55;;
8478;SDS011;4276;49.354;6.804;2023-02-15T15:41:08;18.70;;;16.70;;
8478;SDS011;4276;49.354;6.804;2023-02-15T15:43:59;17.25;;;15.48;;
8478;SDS011;4276;49.354;6.804;2023-02-15T15:49:44;16.38;;;14.68;;
8478;SDS011;4276;49.354;6.804;2023-02-15T15:52:13;18.48;;;16.50;;
8478;SDS011;4276;49.354;6.804;2023-02-15T15:54:41;19.08;;;17.05;;
8478;SDS011;4276;49.354;6.804;2023-02-15T15:57:14;18.92;;;16.98;;
8478;SDS011;4276;49.354;6.804;2023-02-15T16:00:01;23.55;;;20.10;;
8478;SDS011;4276;49.354;6.804;2023-02-15T16:02:29;19.13;;;17.05;;
8478;SDS011;4276;49.354;6.804;2023-02-15T16:05:05;17.75;;;15.48;;
8478;SDS011;4276;49.354;6.804;2023-02-15T16:07:33;18.23;;;16.33;;
8478;SDS011;4276;49.354;6.804;2023-02-15T16:10:07;18.30;;;15.60;;
8478;SDS011;4276;49.354;6.804;2023-02-15T16:12:47;16.73;;;14.80;;
8478;SDS011;4276;49.354;6.804;2023-02-15T16:15:22;17.00;;;15.27;;
8478;SDS011;4276;49.354;6.804;2023-02-15T16:17:54;18.33;;;16.42;;
8478;SDS011;4276;49.354;6.804;2023-02-15T16:28:09;17.70;;;15.90;;
8478;SDS011;4276;49.354;6.804;2023-02-15T16:30:37;17.63;;;15.52;;
8478;SDS011;4276;49.354;6.804;2023-02-15T16:33:09;16.67;;;14.77;;
8478;SDS011;4276;49.354;6.804;2023-02-15T16:35:40;16.38;;;14.02;;
8478;SDS011;4276;49.354;6.804;2023-02-15T16:38:19;16.80;;;14.27;;
8478;SDS011;4276;49.354;6.804;2023-02-15T16:40:54;15.73;;;14.13;;
8478;SDS011;4276;49.354;6.804;2023-02-15T16:43:24;16.30;;;14.05;;
8478;SDS011;4276;49.354;6.804;2023-02-15T16:45:53;23.20;;;21.10;;
8478;SDS011;4276;49.354;6.804;2023-02-15T16:48:29;22.05;;;19.75;;
8478;SDS011;4276;49.354;6.804;2023-02-15T16:50:56;20.48;;;18.60;;
8478;SDS011;4276;49.354;6.804;2023-02-15T16:53:25;18.73;;;16.92;;
8478;SDS011;4276;49.354;6.804;2023-02-15T16:55:54;19.02;;;17.02;;
8478;SDS011;4276;49.354;6.804;2023-02-15T16:58:36;18.73;;;16.73;;
8478;SDS011;4276;49.354;6.804;2023-02-15T17:01:05;17.88;;;16.05;;
8478;SDS011;4276;49.354;6.804;2023-02-15T17:03:33;16.05;;;14.32;;
8478;SDS011;4276;49.354;6.804;2023-02-15T17:06:00;16.60;;;14.80;;
8478;SDS011;4276;49.354;6.804;2023-02-15T17:09:03;14.73;;;13.23;;
8478;SDS011;4276;49.354;6.804;2023-02-15T17:11:36;15.07;;;13.43;;
8478;SDS011;4276;49.354;6.804;2023-02-15T17:16:35;14.52;;;13.15;;
8478;SDS011;4276;49.354;6.804;2023-02-15T17:19:13;15.00;;;13.48;;
8478;SDS011;4276;49.354;6.804;2023-02-15T17:21:51;15.05;;;12.88;;
8478;SDS011;4276;49.354;6.804;2023-02-15T17:24:33;14.93;;;13.38;;
8478;SDS011;4276;49.354;6.804;2023-02-15T17:27:23;15.35;;;13.30;;
8478;SDS011;4276;49.354;6.804;2023-02-15T17:29:58;14.98;;;13.43;;
8478;SDS011;4276;49.354;6.804;2023-02-15T17:32:27;14.80;;;13.25;;
8478;SDS011;4276;49.354;6.804;2023-02-15T17:37:27;14.80;;;12.77;;
8478;SDS011;4276;49.354;6.804;2023-02-15T17:39:54;14.93;;;12.77;;
8478;SDS011;4276;49.354;6.804;2023-02-15T17:42:24;14.70;;;13.20;;
8478;SDS011;4276;49.354;6.804;2023-02-15T17:44:50;15.20;;;13.68;;
8478;SDS011;4276;49.354;6.804;2023-02-15T17:47:18;14.68;;;13.13;;
8478;SDS011;4276;49.354;6.804;2023-02-15T17:49:46;15.75;;;13.82;;
8478;SDS011;4276;49.354;6.804;2023-02-15T17:52:15;15.98;;;13.95;;
8478;SDS011;4276;49.354;6.804;2023-02-15T17:54:42;15.32;;;13.57;;
8478;SDS011;4276;49.354;6.804;2023-02-15T17:57:28;16.38;;;13.75;;
8478;SDS011;4276;49.354;6.804;2023-02-15T17:59:56;15.90;;;14.07;;
8478;SDS011;4276;49.354;6.804;2023-02-15T18:02:41;16.50;;;14.80;;
8478;SDS011;4276;49.354;6.804;2023-02-15T18:05:26;14.93;;;13.32;;
8478;SDS011;4276;49.354;6.804;2023-02-15T18:08:12;16.08;;;14.38;;
8478;SDS011;4276;49.354;6.804;2023-02-15T18:10:59;15.45;;;13.85;;
8478;SDS011;4276;49.354;6.804;2023-02-15T18:13:44;17.90;;;16.23;;
8478;SDS011;4276;49.354;6.804;2023-02-15T18:16:15;18.13;;;16.38;;
8478;SDS011;4276;49.354;6.804;2023-02-15T18:18:43;19.80;;;17.98;;
8478;SDS011;4276;49.354;6.804;2023-02-15T18:21:11;19.23;;;17.23;;
8478;SDS011;4276;49.354;6.804;2023-02-15T18:23:38;18.23;;;16.38;;
8478;SDS011;4276;49.354;6.804;2023-02-15T18:26:05;18.17;;;16.25;;
8478;SDS011;4276;49.354;6.804;2023-02-15T18:28:34;17.75;;;15.95;;
8478;SDS011;4276;49.354;6.804;2023-02-15T18:31:01;17.23;;;14.80;;
8478;SDS011;4276;49.354;6.804;2023-02-15T18:33:31;16.05;;;14.45;;
8478;SDS011;4276;49.354;6.804;2023-02-15T18:36:03;15.60;;;14.10;;
8478;SDS011;4276;49.354;6.804;2023-02-15T18:38:33;15.05;;;13.45;;